1854 Hurricane NOT_NAMED (1854246N25300)


IBTrACS version v04r00. Visit IBTrACS website for data access.
Please direct all questions to the IBTrACS Q and A forum

Storm track - Intensity - Wind Radii - Intensity Data - Source Data - All data

Summary Information

Storm ID 1854246N25300
Start Sep 2 12Z
Landfall Sep 9 00Z
Max Intensity 110 kt (Sep 7 00Z), 938 mb (Sep 7 12Z)
End Sep 12 18Z
ATCF IDs ,AL031854
Track status Best track data.

Storm track plot

Map of storm track

Intensity plots

Map of storm track

Radial wind information

No radial wind information for this storm


Position and Intensity Table

BASIN ISO_TIME_________ NATURE LAT LON WMO WIND WMO PRES USA WIND USA PRES MLC WIND MLC PRES
degrees north degrees east kts mb kts mb kts mb
NA 1854-09-02 12:00:00 TS 24.50 -59.80 35
NA 15:00:00 TS 24.61 -60.09 35
NA 18:00:00 TS 24.70 -60.40 35
NA 21:00:00 TS 24.75 -60.75 35
NA 1854-09-03 00:00:00 TS 24.80 -61.10 35
NA 03:00:00 TS 24.89 -61.41 35
NA 06:00:00 TS 25.00 -61.70 35
NA 09:00:00 TS 25.10 -61.97 37
NA 12:00:00 TS 25.20 -62.30 40
NA 15:00:00 TS 25.31 -62.78 42
NA 18:00:00 TS 25.40 -63.30 45
NA 21:00:00 TS 25.46 -63.75 45
NA 1854-09-04 00:00:00 TS 25.50 -64.20 45
NA 03:00:00 TS 25.54 -64.70 47
NA 06:00:00 TS 25.60 -65.20 50
NA 09:00:00 TS 25.70 -65.63 52
NA 12:00:00 TS 25.80 -66.10 55
NA 15:00:00 TS 25.85 -66.72 57
NA 18:00:00 TS 25.90 -67.40 60
NA 21:00:00 TS 25.99 -68.05 60
NA 1854-09-05 00:00:00 TS 26.10 -68.70 60
NA 03:00:00 TS 26.20 -69.36 65
NA 06:00:00 TS 26.30 -70.00 70
NA 09:00:00 TS 26.40 -70.63 75
NA 12:00:00 TS 26.50 -71.20 80
NA 15:00:00 TS 26.61 -71.68 82
NA 18:00:00 TS 26.70 -72.10 85
NA 21:00:00 TS 26.75 -72.50 87
NA 1854-09-06 00:00:00 TS 26.80 -72.90 90
NA 03:00:00 TS 26.89 -73.34 92
NA 06:00:00 TS 27.00 -73.80 95
NA 09:00:00 TS 27.09 -74.24 97
NA 12:00:00 NR 27.20 -74.70 100
NA 15:00:00 NR 27.33 -75.20 102
NA 18:00:00 NR 27.50 -75.70 105
NA 21:00:00 NR 27.69 -76.15 107
NA 1854-09-07 00:00:00 TS 27.40 -76.60 110 110 110
NA 03:00:00 TS 27.45 -77.10 110 110
NA 06:00:00 TS 27.64 -77.60 110 110 110
NA 09:00:00 TS 27.88 -78.08 110 110
NA 12:00:00 TS 28.20 -78.57 110 938 110 938 110 938
NA 15:00:00 TS 28.55 -79.09 110 110
NA 18:00:00 TS 28.90 -79.57 110 110 110
NA 21:00:00 TS 29.24 -79.93 110 110
NA 1854-09-08 00:00:00 TS 29.60 -80.20 110 110 110
NA 03:00:00 TS 29.98 -80.39 110 110
NA 06:00:00 TS 30.37 -80.53 110 110 110
NA 09:00:00 TS 30.74 -80.69 105 105
NA 12:00:00 TS 31.07 -80.83 100 100 100
NA 15:00:00 TS 31.35 -80.96 100 100
NA 18:00:00 TS 31.57 -81.03 100 950 100 950 100 950
NA 20:00:00 TS 31.68 -81.04 100 950 100 950 100 950
NA 21:00:00 TS 31.74 -81.06 95 100 950
NA 1854-09-09 00:00:00 TS 31.97 -81.20 80 80 100 950
NA 03:00:00 TS 32.20 -81.38 75 90
NA 06:00:00 TS 32.47 -81.57 70 70 80
NA 09:00:00 TS 32.73 -81.76 65 70
NA 12:00:00 TS 33.07 -81.80 60 60 60
NA 15:00:00 TS 33.55 -81.64 55 55
NA 18:00:00 TS 34.10 -81.20 50 50 50
NA 21:00:00 TS 34.67 -80.29 45 45
NA 1854-09-10 00:00:00 TS 35.30 -78.96 40 40 40
NA 03:00:00 TS 36.03 -77.44 40
NA 06:00:00 TS 36.80 -75.90 40 40
NA 09:00:00 TS 37.35 -74.94 45
NA 12:00:00 TS 37.80 -74.00 50 50
NA 15:00:00 TS 38.14 -72.99 55
NA 18:00:00 TS 38.40 -71.90 60 60
NA 21:00:00 TS 38.63 -70.71 65
NA 1854-09-11 00:00:00 TS 38.80 -69.50 70 70
NA 03:00:00 TS 38.90 -68.39 75
NA 06:00:00 TS 39.00 -67.30 80 80
NA 09:00:00 TS 39.20 -66.23 85
NA 12:00:00 TS 39.40 -65.00 90 90
NA 15:00:00 TS 39.46 -63.49 90
NA 18:00:00 TS 39.50 -61.80 90 90
NA 21:00:00 TS 39.64 -60.05 90
NA 1854-09-12 00:00:00 TS 39.80 -58.30 90 90
NA 03:00:00 TS 39.92 -56.67 90
NA 06:00:00 TS 40.00 -55.10 90 90
NA 09:00:00 TS 39.99 -53.61 85
NA 12:00:00 TS 40.00 -52.00 80 80
NA 15:00:00 TS 40.08 -50.10 80
NA 18:00:00 TS 40.20 -48.00 80 80

Source Information

Agency Information
USA hurdat2-1851-2018-051019.txt:Line=366:UNNAMED
TOKYO
CMA
HKO
NEWDELHI
REUNION
BOM
NADI
WELLINGTON
DS824
TD9636
TD9635
NEUMANN
MLC

All available IBTrACS Data

SEASON BASIN SUBBASIN ISO_TIME_________ NATURE LAT LON WMO WIND WMO PRES WMO AGENCY DIST2LAND LANDFALL IFLAG USA AGENCY USA ATCF_ID USA LAT USA LON USA RECORD USA STATUS USA WIND USA PRES USA SSHS MLC LAT MLC LON MLC CLASS MLC WIND MLC PRES STORM SPEED STORM DIR
Year degrees north degrees east kts mb km km degrees north degrees east kts mb 1 degrees north degrees east kts mb kts degrees
1854 NA NA 1854-09-02 12:00:00 TS 24.50 -59.80 908 896 _____________O -1 24.50 -59.80 TS 35 6 293
1854 NA NA 15:00:00 TS 24.61 -60.09 896 885 _____________P -1 24.61 -60.09 TS 35 6 290
1854 NA NA 18:00:00 TS 24.70 -60.40 885 867 _____________O -1 24.70 -60.40 TS 35 6 283
1854 NA NA 21:00:00 TS 24.75 -60.75 870 853 _____________P -1 24.75 -60.75 TS 35 6 279
1854 NA NA 1854-09-03 00:00:00 TS 24.80 -61.10 853 842 _____________O -1 24.80 -61.10 TS 35 6 283
1854 NA NA 03:00:00 TS 24.89 -61.41 846 835 _____________P -1 24.89 -61.41 TS 35 6 290
1854 NA NA 06:00:00 TS 25.00 -61.70 840 835 _____________O -1 25.00 -61.70 TS 35 6 292
1854 NA NA 09:00:00 TS 25.10 -61.97 836 831 _____________P -1 25.10 -61.97 TS 37 6 290
1854 NA NA 12:00:00 TS 25.20 -62.30 832 824 _____________O -1 25.20 -62.30 TS 40 8 286
1854 NA NA 15:00:00 TS 25.31 -62.78 823 816 _____________P -1 25.31 -62.78 TS 42 9 282
1854 NA NA 18:00:00 TS 25.40 -63.30 817 806 _____________O -1 25.40 -63.30 TS 45 9 280
1854 NA NA 21:00:00 TS 25.46 -63.75 815 806 _____________P -1 25.46 -63.75 TS 45 8 277
1854 NA NA 1854-09-04 00:00:00 TS 25.50 -64.20 806 799 _____________O -1 25.50 -64.20 TS 45 9 276
1854 NA NA 03:00:00 TS 25.54 -64.70 799 798 _____________P -1 25.54 -64.70 TS 47 9 276
1854 NA NA 06:00:00 TS 25.60 -65.20 806 805 _____________O -1 25.60 -65.20 TS 50 9 281
1854 NA NA 09:00:00 TS 25.70 -65.63 809 797 _____________P -1 25.70 -65.63 TS 52 8 284
1854 NA NA 12:00:00 TS 25.80 -66.10 797 771 _____________O -1 25.80 -66.10 TS 55 10 279
1854 NA NA 15:00:00 TS 25.85 -66.72 781 752 _____________P -1 25.85 -66.72 TS 57 12 275
1854 NA NA 18:00:00 TS 25.90 -67.40 752 739 _____________O -1 25.90 -67.40 TS 60 12 277
1854 NA NA 21:00:00 TS 25.99 -68.05 739 700 _____________P -1 25.99 -68.05 TS 60 12 280
1854 NA NA 1854-09-05 00:00:00 TS 26.10 -68.70 700 673 _____________O -1 26.10 -68.70 TS 60 12 280
1854 NA NA 03:00:00 TS 26.20 -69.36 668 646 _____________P -1 26.20 -69.36 TS 65 12 280
1854 NA NA 06:00:00 TS 26.30 -70.00 646 630 _____________O -1 26.30 -70.00 HU 70 12 280
1854 NA NA 09:00:00 TS 26.40 -70.63 630 619 _____________P -1 26.40 -70.63 HU 75 11 281
1854 NA NA 12:00:00 TS 26.50 -71.20 619 614 _____________O -1 26.50 -71.20 HU 80 10 282
1854 NA NA 15:00:00 TS 26.61 -71.68 617 612 _____________P -1 26.61 -71.68 HU 82 8 284
1854 NA NA 18:00:00 TS 26.70 -72.10 612 575 _____________O -1 26.70 -72.10 HU 85 7 281
1854 NA NA 21:00:00 TS 26.75 -72.50 575 543 _____________P -1 26.75 -72.50 HU 87 7 278
1854 NA NA 1854-09-06 00:00:00 TS 26.80 -72.90 543 510 _____________O -1 26.80 -72.90 HU 90 8 281
1854 NA NA 03:00:00 TS 26.89 -73.34 510 469 _____________P -1 26.89 -73.34 HU 92 8 284
1854 NA NA 06:00:00 TS 27.00 -73.80 469 440 _____________O -1 27.00 -73.80 HU 95 8 284
1854 NA NA 09:00:00 TS 27.09 -74.24 440 404 _____________P -1 27.09 -74.24 HU 97 8 284
1854 NA NA 12:00:00 NR 27.20 -74.70 404 371 _____________O -1 27.20 -74.70 MH 100 9 286
1854 NA NA 15:00:00 NR 27.33 -75.20 371 352 _____________P -1 27.33 -75.20 MH 102 9 289
1854 NA NA 18:00:00 NR 27.50 -75.70 352 342 _____________O -1 27.50 -75.70 MH 105 9 293
1854 NA NA 21:00:00 NR 27.69 -76.15 341 292 _____________P -1 27.69 -76.15 MH 107 8 263
1854 NA NA 1854-09-07 00:00:00 TS 27.40 -76.60 110 hurdat_atl 292 272 O____________O hurdat_atl AL031854 26.40 -76.60 HU 110 3 27.90 -76.60 MH 110 9 254
1854 NA NA 03:00:00 TS 27.45 -77.10 282 253 P____________P AL031854 26.80 -77.10 HU 110 3 28.11 -77.10 MH 110 9 285
1854 NA NA 06:00:00 TS 27.64 -77.60 110 hurdat_atl 253 221 O____________O hurdat_atl AL031854 27.20 -77.60 HU 110 3 28.30 -77.60 MH 110 10 296
1854 NA NA 09:00:00 TS 27.88 -78.08 221 193 P____________P AL031854 27.60 -78.10 HU 110 3 28.44 -78.05 MH 110 10 303
1854 NA NA 12:00:00 TS 28.20 -78.57 110 938 hurdat_atl 188 136 O____________O hurdat_atl AL031854 28.00 -78.60 HU 110 938 3 28.60 -78.50 MH 110 938 11 307
1854 NA NA 15:00:00 TS 28.55 -79.09 136 103 P____________P AL031854 28.40 -79.12 HU 110 3 28.84 -79.03 MH 110 11 309
1854 NA NA 18:00:00 TS 28.90 -79.57 110 hurdat_atl 98 93 O____________O hurdat_atl AL031854 28.80 -79.60 HU 110 3 29.10 -79.50 MH 110 10 314
1854 NA NA 21:00:00 TS 29.24 -79.93 93 81 P____________P AL031854 29.20 -80.00 HU 110 3 29.33 -79.80 MH 110 9 322
1854 NA NA 1854-09-08 00:00:00 TS 29.60 -80.20 110 hurdat_atl 87 84 O____________O hurdat_atl AL031854 29.60 -80.30 HU 110 3 29.60 -80.00 MH 110 8 332
1854 NA NA 03:00:00 TS 29.98 -80.39 89 87 P____________P AL031854 30.01 -80.48 HU 110 3 29.93 -80.22 MH 110 8 339
1854 NA NA 06:00:00 TS 30.37 -80.53 110 hurdat_atl 92 66 O____________O hurdat_atl AL031854 30.40 -80.60 HU 110 3 30.30 -80.40 MH 110 8 341
1854 NA NA 09:00:00 TS 30.74 -80.69 66 57 P____________P AL031854 30.77 -80.76 HU 105 3 30.66 -80.57 MH 105 7 340
1854 NA NA 12:00:00 TS 31.07 -80.83 100 hurdat_atl 52 28 O____________O hurdat_atl AL031854 31.10 -80.90 HU 100 3 31.00 -80.70 MH 100 7 340
1854 NA NA 15:00:00 TS 31.35 -80.96 28 18 P____________P AL031854 31.39 -81.03 HU 100 3 31.27 -80.82 MH 100 5 341
1854 NA NA 18:00:00 TS 31.57 -81.03 100 950 hurdat_atl 18 18 O____________O hurdat_atl AL031854 31.60 -81.10 HU 100 950 3 31.50 -80.90 MH 100 950 4 348
1854 NA NA 20:00:00 TS 31.68 -81.04 100 950 hurdat_atl 18 9 O____________P hurdat_atl AL031854 31.70 -81.10 L HU 100 950 3 31.64 -80.91 MH 100 950 4 354
1854 NA NA 21:00:00 TS 31.74 -81.06 9 0 P____________P AL031854 31.76 -81.13 HU 95 2 31.70 -80.91 MH 100 950 5 335
1854 NA NA 1854-09-09 00:00:00 TS 31.97 -81.20 80 hurdat_atl 0 0 O____________O hurdat_atl AL031854 32.00 -81.30 HU 80 1 31.90 -81.00 MH 100 950 5 329
1854 NA NA 03:00:00 TS 32.20 -81.38 0 0 P____________P AL031854 32.23 -81.42 HU 75 1 32.15 -81.30 MH 90 6 328
1854 NA NA 06:00:00 TS 32.47 -81.57 70 hurdat_atl 0 0 O____________O hurdat_atl AL031854 32.50 -81.50 HU 70 1 32.40 -81.70 HU 80 6 329
1854 NA NA 09:00:00 TS 32.73 -81.76 0 0 P____________P AL031854 32.80 -81.59 HU 65 1 32.57 -82.09 HU 70 6 342
1854 NA NA 12:00:00 TS 33.07 -81.80 60 hurdat_atl 0 0 O____________O hurdat_atl AL031854 33.20 -81.50 TS 60 0 32.80 -82.40 TS 60 8 7
1854 NA NA 15:00:00 TS 33.55 -81.64 0 0 P____________P AL031854 33.71 -81.18 TS 55 0 33.22 -82.57 TS 55 12 26
1854 NA NA 18:00:00 TS 34.10 -81.20 50 hurdat_atl 0 0 O____________O hurdat_atl AL031854 34.30 -80.50 TS 50 0 33.70 -82.60 TS 50 16 45
1854 NA NA 21:00:00 TS 34.67 -80.29 0 0 P____________P AL031854 34.89 -79.39 TS 45 0 34.12 -82.53 TS 45 22 57
1854 NA NA 1854-09-10 00:00:00 TS 35.30 -78.96 40 hurdat_atl 0 0 O____________O hurdat_atl AL031854 35.50 -78.10 TS 40 0 34.50 -82.40 TS 40 27 60
1854 NA NA 03:00:00 TS 36.03 -77.44 0 0 P_____________ AL031854 36.16 -76.96 TS 40 0 TS 29 59
1854 NA NA 06:00:00 TS 36.80 -75.90 40 hurdat_atl 8 8 O_____________ hurdat_atl AL031854 36.80 -75.90 TS 40 0 24 57
1854 NA NA 09:00:00 TS 37.35 -74.94 69 69 P_____________ AL031854 37.35 -74.94 TS 45 0 18 56
1854 NA NA 12:00:00 TS 37.80 -74.00 50 hurdat_atl 111 111 O_____________ hurdat_atl AL031854 37.80 -74.00 TS 50 0 17 63
1854 NA NA 15:00:00 TS 38.14 -72.99 184 184 P_____________ AL031854 38.14 -72.99 TS 55 0 18 70
1854 NA NA 18:00:00 TS 38.40 -71.90 60 hurdat_atl 240 240 O_____________ hurdat_atl AL031854 38.40 -71.90 TS 60 0 18 75
1854 NA NA 21:00:00 TS 38.63 -70.71 293 289 P_____________ AL031854 38.63 -70.71 TS 65 1 19 78
1854 NA NA 1854-09-11 00:00:00 TS 38.80 -69.50 70 hurdat_atl 317 317 O_____________ hurdat_atl AL031854 38.80 -69.50 HU 70 1 18 82
1854 NA NA 03:00:00 TS 38.90 -68.39 339 339 P_____________ AL031854 38.90 -68.39 HU 75 1 17 83
1854 NA NA 06:00:00 TS 39.00 -67.30 80 hurdat_atl 377 377 O_____________ hurdat_atl AL031854 39.00 -67.30 HU 80 1 17 80
1854 NA NA 09:00:00 TS 39.20 -66.23 424 424 P_____________ AL031854 39.20 -66.23 HU 85 2 18 77
1854 NA NA 12:00:00 TS 39.40 -65.00 90 hurdat_atl 456 456 O_____________ hurdat_atl AL031854 39.40 -65.00 HU 90 2 21 83
1854 NA NA 15:00:00 TS 39.46 -63.49 469 469 P_____________ AL031854 39.46 -63.49 HU 90 2 25 88
1854 NA NA 18:00:00 TS 39.50 -61.80 90 hurdat_atl 531 531 O_____________ hurdat_atl AL031854 39.50 -61.80 HU 90 2 27 86
1854 NA NA 21:00:00 TS 39.64 -60.05 606 600 P_____________ AL031854 39.64 -60.05 HU 90 2 27 84
1854 NA NA 1854-09-12 00:00:00 TS 39.80 -58.30 90 hurdat_atl 642 642 O_____________ hurdat_atl AL031854 39.80 -58.30 HU 90 2 26 84
1854 NA NA 03:00:00 TS 39.92 -56.67 689 689 P_____________ AL031854 39.92 -56.67 HU 90 2 25 85
1854 NA NA 06:00:00 TS 40.00 -55.10 90 hurdat_atl 743 733 O_____________ hurdat_atl AL031854 40.00 -55.10 HU 90 2 23 88
1854 NA NA 09:00:00 TS 39.99 -53.61 733 733 P_____________ AL031854 39.99 -53.61 HU 85 2 24 90
1854 NA NA 12:00:00 TS 40.00 -52.00 80 hurdat_atl 740 740 O_____________ hurdat_atl AL031854 40.00 -52.00 HU 80 1 27 88
1854 NA NA 15:00:00 TS 40.08 -50.10 764 764 P_____________ AL031854 40.08 -50.10 HU 80 1 31 86
1854 NA NA 18:00:00 TS 40.20 -48.00 80 hurdat_atl 825 O_____________ hurdat_atl AL031854 40.20 -48.00 HU 80 1 32 86